createdAt,value
2022-10-04T00:02:22.916Z,8.40
2022-10-04T00:05:21.490Z,7.00
2022-10-04T00:08:34.081Z,6.20
2022-10-04T00:11:34.258Z,10.40
2022-10-04T00:14:42.348Z,7.40
2022-10-04T00:17:39.078Z,8.00
2022-10-04T00:20:50.700Z,9.00
2022-10-04T00:23:48.382Z,10.00
2022-10-04T00:26:45.108Z,12.00
2022-10-04T00:29:42.350Z,11.40
2022-10-04T00:32:41.796Z,11.80
2022-10-04T00:35:47.045Z,9.20
2022-10-04T00:38:44.194Z,11.20
2022-10-04T00:41:47.278Z,8.20
2022-10-04T00:44:50.250Z,12.60
2022-10-04T00:47:46.968Z,8.80
2022-10-04T00:50:51.382Z,7.60
2022-10-04T00:53:57.554Z,14.60
2022-10-04T00:57:05.185Z,15.00
2022-10-04T01:00:09.595Z,7.00
2022-10-04T01:03:14.698Z,9.80
2022-10-04T01:06:11.886Z,12.00
2022-10-04T01:09:10.463Z,11.80
2022-10-04T01:12:11.015Z,7.20
2022-10-04T01:15:25.352Z,7.20
2022-10-04T01:18:22.220Z,7.40
2022-10-04T01:21:19.401Z,11.20
2022-10-04T01:24:16.629Z,10.00
2022-10-04T01:27:35.372Z,12.20
2022-10-04T01:30:32.410Z,10.20
2022-10-04T01:33:30.122Z,14.20
2022-10-04T01:36:27.916Z,13.40
2022-10-04T01:39:26.458Z,9.20
2022-10-04T01:42:30.994Z,6.60
2022-10-04T01:45:48.263Z,15.20
2022-10-04T01:48:44.787Z,13.20
2022-10-04T01:52:05.665Z,14.00
2022-10-04T01:55:09.862Z,16.00
2022-10-04T01:58:19.212Z,7.00
2022-10-04T02:01:31.693Z,13.20
2022-10-04T02:04:32.482Z,10.60
2022-10-04T02:07:30.826Z,15.80
2022-10-04T02:10:28.109Z,17.00
2022-10-04T02:13:28.102Z,13.80
2022-10-04T02:16:26.565Z,12.00
2022-10-04T02:19:28.258Z,13.00
2022-10-04T02:22:28.153Z,12.20
2022-10-04T02:25:27.025Z,12.60
2022-10-04T02:28:25.541Z,13.40
2022-10-04T02:31:41.879Z,11.80
2022-10-04T02:34:39.402Z,16.60
2022-10-04T02:37:36.367Z,12.60
2022-10-04T02:40:40.754Z,15.20
2022-10-04T02:43:47.327Z,12.00
2022-10-04T02:46:51.488Z,11.40
2022-10-04T02:49:53.167Z,7.20
2022-10-04T02:52:53.850Z,12.40
2022-10-04T02:55:51.316Z,10.20
2022-10-04T02:58:48.564Z,16.80
2022-10-04T03:01:51.057Z,11.00
2022-10-04T03:04:48.096Z,14.20
2022-10-04T03:07:45.169Z,12.40
2022-10-04T03:10:42.729Z,11.00
2022-10-04T03:13:41.667Z,8.40
2022-10-04T03:16:41.124Z,14.40
2022-10-04T03:19:38.759Z,14.60
2022-10-04T03:22:36.390Z,9.80
2022-10-04T03:25:45.829Z,11.60
2022-10-04T03:28:43.254Z,12.00
2022-10-04T03:31:45.847Z,15.40
2022-10-04T03:34:51.369Z,11.40
2022-10-04T03:37:48.139Z,13.40
2022-10-04T03:40:51.648Z,12.20
2022-10-04T03:43:50.300Z,11.20
2022-10-04T03:46:47.241Z,11.00
2022-10-04T03:49:48.562Z,9.80
2022-10-04T03:52:56.862Z,12.00
2022-10-04T03:55:53.930Z,14.20
2022-10-04T03:58:51.363Z,11.40
2022-10-04T04:02:01.910Z,13.00
2022-10-04T04:05:19.806Z,11.60
2022-10-04T04:08:32.662Z,7.00
2022-10-04T04:11:31.036Z,10.80
2022-10-04T04:14:28.493Z,10.80
2022-10-04T04:17:32.837Z,12.60
2022-10-04T04:20:32.686Z,11.40
2022-10-04T04:23:34.349Z,11.40
2022-10-04T04:26:48.265Z,16.40
2022-10-04T04:29:54.026Z,13.20
2022-10-04T04:32:52.758Z,8.60
2022-10-04T04:35:55.331Z,10.40
2022-10-04T04:39:10.594Z,11.40
2022-10-04T04:42:19.000Z,11.00
2022-10-04T04:45:22.790Z,8.00
2022-10-04T04:48:20.833Z,14.00
2022-10-04T04:51:23.127Z,12.00
2022-10-04T04:54:23.954Z,14.80
2022-10-04T04:57:21.159Z,12.20
2022-10-04T05:00:20.558Z,9.20
2022-10-04T05:03:18.582Z,12.00
2022-10-04T05:06:27.733Z,13.00
2022-10-04T05:09:28.743Z,11.20
2022-10-04T05:12:27.553Z,11.20
2022-10-04T05:15:24.901Z,12.60
2022-10-04T05:18:33.142Z,8.40
2022-10-04T05:21:31.086Z,11.60
2022-10-04T05:24:29.620Z,13.40
2022-10-04T05:27:32.134Z,12.20
2022-10-04T05:30:36.386Z,10.80
2022-10-04T05:33:52.476Z,15.20
2022-10-04T05:37:06.629Z,14.00
2022-10-04T05:40:10.739Z,10.40
2022-10-04T05:43:52.759Z,14.20
2022-10-04T05:46:50.398Z,10.40
2022-10-04T05:49:48.137Z,11.60
2022-10-04T05:52:45.224Z,11.00
2022-10-04T05:55:58.296Z,13.80
2022-10-04T05:59:26.894Z,13.80
2022-10-04T06:02:29.658Z,7.80
2022-10-04T06:05:52.197Z,14.00
2022-10-04T06:09:07.671Z,13.40
2022-10-04T06:12:20.262Z,11.00
2022-10-04T06:15:36.674Z,12.60
2022-10-04T06:18:58.510Z,15.80
2022-10-04T06:22:17.169Z,9.00
2022-10-04T06:25:26.614Z,13.40
2022-10-04T06:28:25.359Z,14.60
2022-10-04T06:31:57.057Z,14.80
2022-10-04T06:35:09.755Z,12.20
2022-10-04T06:38:29.121Z,16.80
2022-10-04T06:41:36.380Z,17.00
2022-10-04T06:44:49.306Z,17.80
2022-10-04T06:48:06.306Z,14.60
2022-10-04T06:51:21.997Z,20.80
2022-10-04T06:54:54.725Z,10.60
2022-10-04T06:58:17.452Z,17.00
2022-10-04T07:01:20.436Z,22.00
2022-10-04T07:05:03.091Z,23.00
2022-10-04T07:08:06.765Z,19.60
2022-10-04T07:11:30.292Z,21.00
2022-10-04T07:14:31.110Z,20.00
2022-10-04T07:17:36.234Z,27.80
2022-10-04T07:20:34.442Z,20.80
2022-10-04T07:23:34.405Z,21.20
2022-10-04T07:26:37.573Z,19.80
2022-10-04T07:29:41.955Z,24.20
2022-10-04T07:32:44.746Z,18.60
2022-10-04T07:35:47.483Z,27.40
2022-10-04T07:38:47.528Z,25.00
2022-10-04T07:41:57.697Z,26.60
2022-10-04T07:45:00.469Z,25.20
2022-10-04T07:48:25.007Z,22.80
2022-10-04T07:51:34.670Z,23.60
2022-10-04T07:54:39.494Z,19.60
2022-10-04T07:57:47.316Z,22.80
2022-10-04T08:00:49.579Z,24.00
2022-10-04T08:04:12.651Z,21.20
2022-10-04T08:07:26.004Z,20.00
2022-10-04T08:10:37.691Z,19.80
2022-10-04T08:14:11.930Z,22.60
2022-10-04T08:17:41.898Z,27.80
2022-10-04T08:20:57.876Z,13.40
2022-10-04T08:24:12.210Z,20.00
2022-10-04T08:27:38.559Z,17.00
2022-10-04T08:31:02.126Z,14.00
2022-10-04T08:33:59.231Z,18.80
2022-10-04T08:37:10.164Z,12.60
2022-10-04T08:40:13.788Z,15.80
2022-10-04T08:43:19.818Z,18.20
2022-10-04T08:46:32.518Z,13.00
2022-10-04T08:49:32.217Z,16.40
2022-10-04T08:53:11.001Z,17.60
2022-10-04T08:56:45.873Z,18.40
2022-10-04T09:00:08.257Z,14.00
2022-10-04T09:03:35.553Z,13.60
2022-10-04T09:06:43.937Z,12.60
2022-10-04T09:10:17.579Z,12.80
2022-10-04T09:13:30.995Z,11.00
2022-10-04T09:16:47.871Z,13.00
2022-10-04T09:20:38.712Z,13.00
2022-10-04T09:24:05.679Z,9.40
2022-10-04T09:27:12.111Z,11.80
2022-10-04T09:31:04.511Z,10.00
2022-10-04T09:34:07.419Z,8.00
2022-10-04T09:37:32.817Z,4.00
2022-10-04T09:40:36.532Z,16.75
2022-10-04T09:44:17.578Z,28.25
2022-10-04T09:47:37.942Z,8.00
2022-10-04T09:50:39.865Z,13.00
2022-10-04T09:53:58.655Z,8.00
2022-10-04T09:57:08.415Z,29.25
2022-10-04T10:00:25.056Z,6.50
2022-10-04T10:03:31.772Z,32.25
2022-10-04T10:06:52.347Z,36.75
2022-10-04T10:10:47.046Z,38.25
2022-10-04T10:14:02.693Z,36.50
2022-10-04T10:17:24.642Z,35.25
2022-10-04T10:20:36.400Z,28.25
2022-10-04T10:23:44.071Z,48.25
2022-10-04T10:26:56.316Z,41.25
2022-10-04T10:30:12.617Z,43.00
2022-10-04T10:33:40.605Z,35.75
2022-10-04T10:37:09.997Z,13.50
2022-10-04T10:40:29.026Z,49.75
2022-10-04T10:43:37.008Z,49.25
2022-10-04T10:46:47.015Z,44.50
2022-10-04T10:49:59.290Z,42.75
2022-10-04T10:53:36.077Z,35.00
2022-10-04T10:56:45.109Z,20.25
2022-10-04T11:00:06.540Z,42.25
2022-10-04T11:03:41.643Z,33.25
2022-10-04T11:06:45.165Z,26.00
2022-10-04T11:09:46.881Z,24.00
2022-10-04T11:13:12.008Z,20.50
2022-10-04T11:16:41.460Z,44.75
2022-10-04T11:20:02.913Z,19.50
2022-10-04T11:23:21.900Z,29.00
2022-10-04T11:26:24.330Z,52.25
2022-10-04T11:29:28.493Z,48.25
2022-10-04T11:32:40.819Z,45.50
2022-10-04T11:36:16.533Z,41.50
2022-10-04T11:39:45.083Z,39.75
2022-10-04T11:43:04.272Z,43.50
2022-10-04T11:46:23.426Z,39.00
2022-10-04T11:49:38.943Z,54.00
2022-10-04T11:52:36.993Z,24.75
2022-10-04T11:56:10.558Z,34.25
2022-10-04T11:59:28.249Z,48.50
2022-10-04T12:03:02.841Z,51.00
2022-10-04T12:06:08.824Z,52.75
2022-10-04T12:09:11.234Z,33.50
2022-10-04T12:12:39.431Z,53.75
2022-10-04T12:15:52.187Z,10.75
2022-10-04T12:19:27.402Z,40.50
2022-10-04T12:23:00.528Z,39.25
2022-10-04T12:26:25.689Z,51.25
2022-10-04T12:29:42.257Z,40.00
2022-10-04T12:32:42.418Z,45.75
2022-10-04T12:36:08.717Z,16.50
2022-10-04T12:39:28.367Z,51.00
2022-10-04T12:42:45.585Z,47.75
2022-10-04T12:45:56.465Z,49.25
2022-10-04T12:48:56.529Z,46.25
2022-10-04T12:52:06.331Z,51.00
2022-10-04T12:55:38.091Z,43.75
2022-10-04T12:59:09.605Z,53.00
2022-10-04T13:02:33.819Z,47.75
2022-10-04T13:05:52.141Z,51.50
2022-10-04T13:09:05.972Z,42.25
2022-10-04T13:12:12.222Z,48.50
2022-10-04T13:15:13.773Z,49.00
2022-10-04T13:18:29.303Z,37.75
2022-10-04T13:21:45.693Z,44.75
2022-10-04T13:25:01.009Z,40.50
2022-10-04T13:28:21.587Z,41.75
2022-10-04T13:31:26.147Z,40.75
2022-10-04T13:34:36.469Z,42.00
2022-10-04T13:37:50.326Z,50.00
2022-10-04T13:40:47.742Z,40.75
2022-10-04T13:44:09.426Z,45.25
2022-10-04T13:47:54.647Z,51.25
2022-10-04T13:51:09.780Z,35.00
2022-10-04T13:54:34.751Z,44.25
2022-10-04T13:58:05.291Z,41.25
2022-10-04T14:01:33.949Z,51.50
2022-10-04T14:04:42.655Z,40.50
2022-10-04T14:08:05.174Z,51.50
2022-10-04T14:11:31.577Z,49.50
2022-10-04T14:14:33.296Z,43.00
2022-10-04T14:17:42.078Z,39.25
2022-10-04T14:20:48.183Z,42.00
2022-10-04T14:24:13.751Z,42.00
2022-10-04T14:27:32.489Z,37.50
2022-10-04T14:30:54.337Z,46.00
2022-10-04T14:34:03.931Z,51.25
2022-10-04T14:37:12.310Z,36.00
2022-10-04T14:40:20.832Z,37.00
2022-10-04T14:43:48.992Z,41.75
2022-10-04T14:47:13.760Z,21.00
2022-10-04T14:50:44.501Z,45.50
2022-10-04T14:54:07.665Z,34.50
2022-10-04T14:57:12.595Z,50.50
2022-10-04T15:00:17.175Z,49.00
2022-10-04T15:03:19.583Z,30.50
2022-10-04T15:06:21.238Z,43.75
2022-10-04T15:09:49.788Z,39.00
2022-10-04T15:13:11.572Z,50.75
2022-10-04T15:16:40.460Z,46.50
2022-10-04T15:19:44.519Z,54.25
2022-10-04T15:22:43.226Z,50.00
2022-10-04T15:25:44.318Z,41.25
2022-10-04T15:28:54.288Z,34.25
2022-10-04T15:32:15.950Z,44.00
2022-10-04T15:35:31.338Z,50.50
2022-10-04T15:38:47.022Z,42.75
2022-10-04T15:41:52.808Z,43.00
2022-10-04T15:45:16.982Z,46.75
2022-10-04T15:48:40.203Z,44.50
2022-10-04T15:51:42.543Z,48.25
2022-10-04T15:55:08.093Z,38.75
2022-10-04T15:58:22.622Z,37.50
2022-10-04T16:01:39.052Z,40.50
2022-10-04T16:05:00.921Z,41.25
2022-10-04T16:08:09.577Z,34.00
2022-10-04T16:11:12.807Z,41.00
2022-10-04T16:14:31.898Z,41.50
2022-10-04T16:17:52.390Z,36.00
2022-10-04T16:21:15.300Z,38.25
2022-10-04T16:24:22.155Z,38.75
2022-10-04T16:27:53.396Z,41.75
2022-10-04T16:31:15.422Z,43.25
2022-10-04T16:34:41.673Z,43.00
2022-10-04T16:38:05.253Z,50.25
2022-10-04T16:41:11.479Z,45.25
2022-10-04T16:44:12.454Z,37.75
2022-10-04T16:47:29.283Z,43.00
2022-10-04T16:50:52.278Z,37.75
2022-10-04T16:54:28.497Z,38.25
2022-10-04T16:57:27.541Z,42.50
2022-10-04T17:00:36.246Z,48.75
2022-10-04T17:03:35.397Z,41.33
2022-10-04T17:06:43.618Z,48.50
2022-10-04T17:09:53.972Z,39.50
2022-10-04T17:12:56.340Z,37.25
2022-10-04T17:16:09.222Z,41.50
2022-10-04T17:19:22.575Z,43.75
2022-10-04T17:22:25.808Z,41.50
2022-10-04T17:25:57.211Z,41.33
2022-10-04T17:29:16.869Z,41.00
2022-10-04T17:32:44.438Z,41.00
2022-10-04T17:36:09.472Z,49.33
2022-10-04T17:39:33.821Z,47.00
2022-10-04T17:42:42.358Z,41.33
2022-10-04T17:45:52.131Z,44.00
2022-10-04T17:49:13.661Z,42.00
2022-10-04T17:52:52.777Z,46.67
2022-10-04T17:55:53.095Z,45.33
2022-10-04T17:58:54.414Z,51.00
2022-10-04T18:01:55.635Z,44.67
2022-10-04T18:05:00.847Z,34.50
2022-10-04T18:08:02.359Z,38.67
2022-10-04T18:11:03.867Z,41.67
2022-10-04T18:14:06.585Z,41.00
2022-10-04T18:17:09.496Z,35.00
2022-10-04T18:20:23.639Z,24.75
2022-10-04T18:23:54.268Z,26.25
2022-10-04T18:26:58.574Z,18.25
2022-10-04T18:30:00.593Z,16.00
2022-10-04T18:32:58.028Z,13.50
2022-10-04T18:36:01.213Z,10.50
2022-10-04T18:39:13.430Z,7.00
2022-10-04T18:42:27.607Z,6.00
2022-10-04T18:45:29.240Z,9.00
2022-10-04T18:48:51.843Z,6.25
2022-10-04T18:51:52.071Z,8.00
2022-10-04T18:55:33.642Z,4.67
2022-10-04T18:59:25.965Z,9.75
2022-10-04T19:02:35.119Z,11.00
2022-10-04T19:05:54.255Z,14.00
2022-10-04T19:09:31.638Z,9.50
2022-10-04T19:13:00.858Z,21.00
2022-10-04T19:16:16.843Z,17.00
2022-10-04T19:19:29.897Z,22.00
2022-10-04T19:22:32.797Z,21.25
2022-10-04T19:26:26.316Z,30.25
2022-10-04T19:29:29.377Z,14.00
2022-10-04T19:32:34.451Z,17.75
2022-10-04T19:35:47.045Z,21.25
2022-10-04T19:38:55.847Z,9.75
2022-10-04T19:42:10.524Z,9.00
2022-10-04T19:45:50.139Z,15.00
2022-10-04T19:48:51.025Z,7.50
2022-10-04T19:51:51.271Z,7.33
2022-10-04T19:54:50.892Z,8.00
2022-10-04T19:58:02.570Z,8.00
2022-10-04T20:01:00.453Z,7.33
2022-10-04T20:04:16.459Z,9.67
2022-10-04T20:07:14.620Z,9.00
2022-10-04T20:10:36.135Z,21.50
2022-10-04T20:13:32.948Z,13.75
2022-10-04T20:16:49.145Z,11.75
2022-10-04T20:19:47.295Z,12.25
2022-10-04T20:22:49.851Z,8.25
2022-10-04T20:25:49.573Z,9.75
2022-10-04T20:28:46.855Z,10.75
2022-10-04T20:31:53.694Z,7.00
2022-10-04T20:34:53.615Z,8.50
2022-10-04T20:38:31.267Z,11.25
2022-10-04T20:41:52.514Z,11.00
2022-10-04T20:44:57.376Z,6.60
2022-10-04T20:47:57.625Z,9.00
2022-10-04T20:50:55.296Z,9.00
2022-10-04T20:53:52.467Z,9.40
2022-10-04T20:56:50.193Z,4.50
2022-10-04T20:59:47.155Z,8.80
2022-10-04T21:02:44.166Z,8.75
2022-10-04T21:05:41.196Z,9.00
2022-10-04T21:08:38.369Z,8.60
2022-10-04T21:11:49.908Z,10.75
2022-10-04T21:15:07.110Z,8.50
2022-10-04T21:18:04.096Z,12.67
2022-10-04T21:21:01.107Z,8.25
2022-10-04T21:23:57.961Z,9.25
2022-10-04T21:26:56.907Z,7.00
2022-10-04T21:29:53.930Z,4.00
2022-10-04T21:32:51.634Z,11.00
2022-10-04T21:35:52.557Z,10.50
2022-10-04T21:38:50.355Z,6.00
2022-10-04T21:41:47.413Z,9.67
2022-10-04T21:44:44.089Z,9.25
2022-10-04T21:47:40.918Z,9.50
2022-10-04T21:50:38.589Z,9.60
2022-10-04T21:53:36.271Z,9.75
2022-10-04T21:56:33.254Z,11.50
2022-10-04T21:59:30.398Z,8.75
2022-10-04T22:02:27.313Z,6.33
2022-10-04T22:05:24.566Z,7.67
2022-10-04T22:08:22.492Z,13.50
2022-10-04T22:11:20.228Z,10.00
2022-10-04T22:14:17.271Z,7.75
2022-10-04T22:17:13.967Z,7.67
2022-10-04T22:20:11.423Z,5.75
2022-10-04T22:23:17.032Z,4.00
2022-10-04T22:26:18.436Z,11.50
2022-10-04T22:29:17.521Z,13.25
2022-10-04T22:32:26.194Z,9.60
2022-10-04T22:35:23.440Z,7.80
2022-10-04T22:38:20.022Z,9.20
2022-10-04T22:41:18.827Z,12.60
2022-10-04T22:44:29.198Z,10.00
2022-10-04T22:47:26.129Z,12.20
2022-10-04T22:50:31.835Z,8.20
2022-10-04T22:53:29.013Z,7.20
2022-10-04T22:56:25.876Z,9.80
2022-10-04T22:59:31.179Z,10.00
2022-10-04T23:02:29.809Z,10.20
2022-10-04T23:05:27.099Z,9.00
2022-10-04T23:08:24.338Z,9.40
2022-10-04T23:11:21.357Z,10.60
2022-10-04T23:14:18.332Z,7.00
2022-10-04T23:17:17.823Z,9.80
2022-10-04T23:20:17.315Z,9.20
2022-10-04T23:23:21.248Z,13.60
2022-10-04T23:26:24.836Z,8.20
2022-10-04T23:29:24.245Z,8.60
2022-10-04T23:32:21.388Z,9.80
2022-10-04T23:35:23.597Z,10.40
2022-10-04T23:38:21.296Z,11.20
2022-10-04T23:41:18.273Z,13.00
2022-10-04T23:44:15.964Z,8.80
2022-10-04T23:47:16.101Z,11.80
2022-10-04T23:50:36.264Z,9.00
2022-10-04T23:53:33.130Z,11.40
2022-10-04T23:56:30.349Z,11.00
2022-10-04T23:59:27.451Z,15.00
